sensor_id;sensor_type;location;lat;lon;timestamp;P1;P2;P0
61804;PMS7003;47725;47.912;7.356;2023-10-31T00:02:05;0.00;0.00;
61804;PMS7003;47725;47.912;7.356;2023-10-31T00:06:05;0.00;0.00;
61804;PMS7003;47725;47.912;7.356;2023-10-31T00:10:05;0.89;0.00;
61804;PMS7003;47725;47.912;7.356;2023-10-31T00:14:05;0.89;0.00;
61804;PMS7003;47725;47.912;7.356;2023-10-31T00:18:05;0.89;0.00;
61804;PMS7003;47725;47.912;7.356;2023-10-31T00:22:05;0.00;0.00;
61804;PMS7003;47725;47.912;7.356;2023-10-31T00:26:05;0.00;0.00;
61804;PMS7003;47725;47.912;7.356;2023-10-31T00:30:06;0.00;0.00;
61804;PMS7003;47725;47.912;7.356;2023-10-31T00:34:05;0.00;0.00;
61804;PMS7003;47725;47.912;7.356;2023-10-31T00:38:05;0.00;0.00;
61804;PMS7003;47725;47.912;7.356;2023-10-31T00:42:05;0.00;0.00;
61804;PMS7003;47725;47.912;7.356;2023-10-31T00:46:05;0.00;0.00;
61804;PMS7003;47725;47.912;7.356;2023-10-31T00:50:06;0.00;0.00;
61804;PMS7003;47725;47.912;7.356;2023-10-31T00:54:05;0.00;0.00;
61804;PMS7003;47725;47.912;7.356;2023-10-31T00:58:05;0.00;0.00;
61804;PMS7003;47725;47.912;7.356;2023-10-31T01:02:05;0.00;0.00;
61804;PMS7003;47725;47.912;7.356;2023-10-31T01:06:05;0.00;0.00;
61804;PMS7003;47725;47.912;7.356;2023-10-31T01:10:05;0.00;0.00;
61804;PMS7003;47725;47.912;7.356;2023-10-31T01:14:05;0.00;0.00;
61804;PMS7003;47725;47.912;7.356;2023-10-31T01:18:05;0.00;0.00;
61804;PMS7003;47725;47.912;7.356;2023-10-31T01:22:05;0.00;0.00;
61804;PMS7003;47725;47.912;7.356;2023-10-31T01:26:05;0.00;0.00;
61804;PMS7003;47725;47.912;7.356;2023-10-31T01:30:05;0.00;0.00;
61804;PMS7003;47725;47.912;7.356;2023-10-31T01:34:05;0.00;0.00;
61804;PMS7003;47725;47.912;7.356;2023-10-31T01:38:05;0.00;0.00;
61804;PMS7003;47725;47.912;7.356;2023-10-31T01:42:05;0.00;0.00;
61804;PMS7003;47725;47.912;7.356;2023-10-31T01:46:05;0.00;0.00;
61804;PMS7003;47725;47.912;7.356;2023-10-31T01:50:06;0.00;0.00;
61804;PMS7003;47725;47.912;7.356;2023-10-31T01:54:05;0.00;0.00;
61804;PMS7003;47725;47.912;7.356;2023-10-31T01:58:05;0.00;0.00;
61804;PMS7003;47725;47.912;7.356;2023-10-31T02:02:05;0.00;0.00;
61804;PMS7003;47725;47.912;7.356;2023-10-31T02:06:05;0.00;0.00;
61804;PMS7003;47725;47.912;7.356;2023-10-31T02:10:05;0.00;0.00;
61804;PMS7003;47725;47.912;7.356;2023-10-31T02:14:05;0.00;0.00;
61804;PMS7003;47725;47.912;7.356;2023-10-31T02:18:05;0.00;0.00;
61804;PMS7003;47725;47.912;7.356;2023-10-31T02:22:05;0.00;0.00;
61804;PMS7003;47725;47.912;7.356;2023-10-31T02:26:05;0.00;0.00;
61804;PMS7003;47725;47.912;7.356;2023-10-31T02:30:05;1.81;0.90;
61804;PMS7003;47725;47.912;7.356;2023-10-31T02:34:05;1.81;0.90;
61804;PMS7003;47725;47.912;7.356;2023-10-31T02:38:05;1.81;0.90;
61804;PMS7003;47725;47.912;7.356;2023-10-31T02:42:05;0.00;0.00;
61804;PMS7003;47725;47.912;7.356;2023-10-31T02:46:05;0.00;0.00;
61804;PMS7003;47725;47.912;7.356;2023-10-31T02:50:05;0.00;0.00;
61804;PMS7003;47725;47.912;7.356;2023-10-31T02:54:05;0.00;0.00;
61804;PMS7003;47725;47.912;7.356;2023-10-31T02:58:05;0.00;0.00;
61804;PMS7003;47725;47.912;7.356;2023-10-31T03:02:05;0.00;0.00;
61804;PMS7003;47725;47.912;7.356;2023-10-31T03:06:05;0.00;0.00;
61804;PMS7003;47725;47.912;7.356;2023-10-31T03:10:05;0.00;0.00;
61804;PMS7003;47725;47.912;7.356;2023-10-31T03:14:05;0.00;0.00;
61804;PMS7003;47725;47.912;7.356;2023-10-31T03:18:05;0.00;0.00;
61804;PMS7003;47725;47.912;7.356;2023-10-31T03:22:05;0.00;0.00;
61804;PMS7003;47725;47.912;7.356;2023-10-31T03:26:05;0.00;0.00;
61804;PMS7003;47725;47.912;7.356;2023-10-31T03:30:05;0.00;0.00;
61804;PMS7003;47725;47.912;7.356;2023-10-31T03:34:05;0.00;0.00;
61804;PMS7003;47725;47.912;7.356;2023-10-31T03:38:05;0.00;0.00;
61804;PMS7003;47725;47.912;7.356;2023-10-31T03:42:05;0.00;0.00;
61804;PMS7003;47725;47.912;7.356;2023-10-31T03:46:05;0.00;0.00;
61804;PMS7003;47725;47.912;7.356;2023-10-31T03:50:05;0.00;0.00;
61804;PMS7003;47725;47.912;7.356;2023-10-31T03:54:05;0.00;0.00;
61804;PMS7003;47725;47.912;7.356;2023-10-31T03:58:05;0.00;0.00;
61804;PMS7003;47725;47.912;7.356;2023-10-31T04:02:05;0.00;0.00;
61804;PMS7003;47725;47.912;7.356;2023-10-31T04:06:05;0.00;0.00;
61804;PMS7003;47725;47.912;7.356;2023-10-31T04:10:05;0.00;0.00;
61804;PMS7003;47725;47.912;7.356;2023-10-31T04:14:05;0.00;0.00;
61804;PMS7003;47725;47.912;7.356;2023-10-31T04:18:05;0.00;0.00;
61804;PMS7003;47725;47.912;7.356;2023-10-31T04:22:05;1.80;0.00;
61804;PMS7003;47725;47.912;7.356;2023-10-31T04:26:05;1.80;0.00;
61804;PMS7003;47725;47.912;7.356;2023-10-31T04:30:05;0.00;0.00;
61804;PMS7003;47725;47.912;7.356;2023-10-31T04:34:05;0.00;0.00;
61804;PMS7003;47725;47.912;7.356;2023-10-31T04:38:05;0.00;0.00;
61804;PMS7003;47725;47.912;7.356;2023-10-31T04:42:05;0.90;0.00;
61804;PMS7003;47725;47.912;7.356;2023-10-31T04:46:05;0.90;0.00;
61804;PMS7003;47725;47.912;7.356;2023-10-31T04:50:05;0.00;0.00;
61804;PMS7003;47725;47.912;7.356;2023-10-31T04:54:05;0.00;0.00;
61804;PMS7003;47725;47.912;7.356;2023-10-31T04:58:05;0.00;0.00;
61804;PMS7003;47725;47.912;7.356;2023-10-31T05:02:05;0.00;0.00;
61804;PMS7003;47725;47.912;7.356;2023-10-31T05:06:05;0.00;0.00;
61804;PMS7003;47725;47.912;7.356;2023-10-31T05:10:05;1.80;0.90;
61804;PMS7003;47725;47.912;7.356;2023-10-31T05:14:07;1.80;0.90;
61804;PMS7003;47725;47.912;7.356;2023-10-31T05:18:05;1.80;0.90;
61804;PMS7003;47725;47.912;7.356;2023-10-31T05:22:05;0.00;0.00;
61804;PMS7003;47725;47.912;7.356;2023-10-31T05:26:05;0.00;0.00;
61804;PMS7003;47725;47.912;7.356;2023-10-31T05:30:05;0.00;0.00;
61804;PMS7003;47725;47.912;7.356;2023-10-31T05:34:05;0.00;0.00;
61804;PMS7003;47725;47.912;7.356;2023-10-31T05:38:05;0.00;0.00;
61804;PMS7003;47725;47.912;7.356;2023-10-31T05:42:05;0.00;0.00;
61804;PMS7003;47725;47.912;7.356;2023-10-31T05:46:05;0.00;0.00;
61804;PMS7003;47725;47.912;7.356;2023-10-31T05:50:05;0.00;0.00;
61804;PMS7003;47725;47.912;7.356;2023-10-31T05:54:06;0.00;0.00;
61804;PMS7003;47725;47.912;7.356;2023-10-31T05:58:05;0.00;0.00;
61804;PMS7003;47725;47.912;7.356;2023-10-31T06:02:05;3.60;0.00;
61804;PMS7003;47725;47.912;7.356;2023-10-31T06:06:05;3.60;0.00;
61804;PMS7003;47725;47.912;7.356;2023-10-31T06:10:05;0.00;0.00;
61804;PMS7003;47725;47.912;7.356;2023-10-31T06:14:05;0.00;0.00;
61804;PMS7003;47725;47.912;7.356;2023-10-31T06:18:05;0.00;0.00;
61804;PMS7003;47725;47.912;7.356;2023-10-31T06:22:05;0.90;0.90;
61804;PMS7003;47725;47.912;7.356;2023-10-31T06:26:05;0.90;0.90;
61804;PMS7003;47725;47.912;7.356;2023-10-31T06:30:05;0.90;0.00;
61804;PMS7003;47725;47.912;7.356;2023-10-31T06:34:05;0.90;0.00;
61804;PMS7003;47725;47.912;7.356;2023-10-31T06:38:05;0.90;0.00;
61804;PMS7003;47725;47.912;7.356;2023-10-31T06:42:05;1.80;0.00;
61804;PMS7003;47725;47.912;7.356;2023-10-31T06:46:05;1.80;0.00;
61804;PMS7003;47725;47.912;7.356;2023-10-31T06:50:08;1.79;0.00;
61804;PMS7003;47725;47.912;7.356;2023-10-31T06:54:05;1.79;0.00;
61804;PMS7003;47725;47.912;7.356;2023-10-31T06:58:05;1.79;0.00;
61804;PMS7003;47725;47.912;7.356;2023-10-31T07:02:05;0.90;0.00;
61804;PMS7003;47725;47.912;7.356;2023-10-31T07:06:05;0.90;0.00;
61804;PMS7003;47725;47.912;7.356;2023-10-31T07:10:05;0.89;0.00;
61804;PMS7003;47725;47.912;7.356;2023-10-31T07:14:05;0.89;0.00;
61804;PMS7003;47725;47.912;7.356;2023-10-31T07:18:05;0.89;0.00;
61804;PMS7003;47725;47.912;7.356;2023-10-31T07:22:05;0.89;0.00;
61804;PMS7003;47725;47.912;7.356;2023-10-31T07:26:05;0.89;0.00;
61804;PMS7003;47725;47.912;7.356;2023-10-31T07:30:05;0.00;0.00;
61804;PMS7003;47725;47.912;7.356;2023-10-31T07:34:05;0.00;0.00;
61804;PMS7003;47725;47.912;7.356;2023-10-31T07:38:05;0.00;0.00;
61804;PMS7003;47725;47.912;7.356;2023-10-31T07:42:05;0.89;0.89;
61804;PMS7003;47725;47.912;7.356;2023-10-31T07:46:05;0.89;0.89;
61804;PMS7003;47725;47.912;7.356;2023-10-31T07:50:05;0.00;0.00;
61804;PMS7003;47725;47.912;7.356;2023-10-31T07:54:05;0.00;0.00;
61804;PMS7003;47725;47.912;7.356;2023-10-31T07:58:05;0.00;0.00;
61804;PMS7003;47725;47.912;7.356;2023-10-31T08:02:05;0.88;0.00;
61804;PMS7003;47725;47.912;7.356;2023-10-31T08:06:05;0.88;0.00;
61804;PMS7003;47725;47.912;7.356;2023-10-31T08:10:05;1.75;0.88;
61804;PMS7003;47725;47.912;7.356;2023-10-31T08:14:05;1.75;0.88;
61804;PMS7003;47725;47.912;7.356;2023-10-31T08:18:05;1.75;0.88;
61804;PMS7003;47725;47.912;7.356;2023-10-31T08:22:05;0.88;0.88;
61804;PMS7003;47725;47.912;7.356;2023-10-31T08:26:05;0.88;0.88;
61804;PMS7003;47725;47.912;7.356;2023-10-31T08:30:05;0.00;0.00;
61804;PMS7003;47725;47.912;7.356;2023-10-31T08:34:05;0.00;0.00;
61804;PMS7003;47725;47.912;7.356;2023-10-31T08:38:05;0.00;0.00;
61804;PMS7003;47725;47.912;7.356;2023-10-31T08:42:05;2.66;0.00;
61804;PMS7003;47725;47.912;7.356;2023-10-31T08:46:05;2.66;0.00;
61804;PMS7003;47725;47.912;7.356;2023-10-31T08:50:05;0.00;0.00;
61804;PMS7003;47725;47.912;7.356;2023-10-31T08:54:05;0.00;0.00;
61804;PMS7003;47725;47.912;7.356;2023-10-31T08:58:04;0.00;0.00;
61804;PMS7003;47725;47.912;7.356;2023-10-31T09:02:05;1.80;0.00;
61804;PMS7003;47725;47.912;7.356;2023-10-31T09:06:06;1.80;0.00;
61804;PMS7003;47725;47.912;7.356;2023-10-31T09:10:05;0.00;0.00;
61804;PMS7003;47725;47.912;7.356;2023-10-31T09:14:04;0.00;0.00;
61804;PMS7003;47725;47.912;7.356;2023-10-31T09:18:04;0.00;0.00;
61804;PMS7003;47725;47.912;7.356;2023-10-31T09:22:04;0.00;0.00;
61804;PMS7003;47725;47.912;7.356;2023-10-31T09:26:05;0.00;0.00;
61804;PMS7003;47725;47.912;7.356;2023-10-31T09:30:05;1.83;0.91;
61804;PMS7003;47725;47.912;7.356;2023-10-31T09:34:04;1.83;0.91;
61804;PMS7003;47725;47.912;7.356;2023-10-31T09:38:04;1.83;0.91;
61804;PMS7003;47725;47.912;7.356;2023-10-31T09:42:05;0.00;0.00;
61804;PMS7003;47725;47.912;7.356;2023-10-31T09:46:05;0.00;0.00;
61804;PMS7003;47725;47.912;7.356;2023-10-31T09:50:05;0.94;0.94;
61804;PMS7003;47725;47.912;7.356;2023-10-31T09:54:05;0.94;0.94;
61804;PMS7003;47725;47.912;7.356;2023-10-31T09:58:04;0.94;0.94;
61804;PMS7003;47725;47.912;7.356;2023-10-31T10:02:04;0.00;0.00;
61804;PMS7003;47725;47.912;7.356;2023-10-31T10:06:05;0.00;0.00;
61804;PMS7003;47725;47.912;7.356;2023-10-31T10:10:05;0.00;0.00;
61804;PMS7003;47725;47.912;7.356;2023-10-31T10:14:05;0.00;0.00;
61804;PMS7003;47725;47.912;7.356;2023-10-31T10:18:05;0.00;0.00;
61804;PMS7003;47725;47.912;7.356;2023-10-31T10:22:04;0.00;0.00;
61804;PMS7003;47725;47.912;7.356;2023-10-31T10:26:04;0.00;0.00;
61804;PMS7003;47725;47.912;7.356;2023-10-31T10:30:05;0.00;0.00;
61804;PMS7003;47725;47.912;7.356;2023-10-31T10:34:04;0.00;0.00;
61804;PMS7003;47725;47.912;7.356;2023-10-31T10:38:06;0.00;0.00;
61804;PMS7003;47725;47.912;7.356;2023-10-31T10:42:05;0.00;0.00;
61804;PMS7003;47725;47.912;7.356;2023-10-31T10:46:04;0.00;0.00;
61804;PMS7003;47725;47.912;7.356;2023-10-31T10:50:05;0.00;0.00;
61804;PMS7003;47725;47.912;7.356;2023-10-31T10:54:08;0.00;0.00;
61804;PMS7003;47725;47.912;7.356;2023-10-31T10:58:05;0.00;0.00;
61804;PMS7003;47725;47.912;7.356;2023-10-31T11:02:04;0.00;0.00;
61804;PMS7003;47725;47.912;7.356;2023-10-31T11:06:05;0.00;0.00;
61804;PMS7003;47725;47.912;7.356;2023-10-31T11:10:05;0.00;0.00;
61804;PMS7003;47725;47.912;7.356;2023-10-31T11:14:04;0.00;0.00;
61804;PMS7003;47725;47.912;7.356;2023-10-31T11:18:04;0.00;0.00;
61804;PMS7003;47725;47.912;7.356;2023-10-31T11:22:05;3.86;3.86;
61804;PMS7003;47725;47.912;7.356;2023-10-31T11:26:06;3.86;3.86;
61804;PMS7003;47725;47.912;7.356;2023-10-31T11:30:06;0.00;0.00;
61804;PMS7003;47725;47.912;7.356;2023-10-31T11:34:05;0.00;0.00;
61804;PMS7003;47725;47.912;7.356;2023-10-31T11:38:05;0.00;0.00;
61804;PMS7003;47725;47.912;7.356;2023-10-31T11:42:04;0.00;0.00;
61804;PMS7003;47725;47.912;7.356;2023-10-31T11:46:04;0.00;0.00;
61804;PMS7003;47725;47.912;7.356;2023-10-31T11:50:05;0.00;0.00;
61804;PMS7003;47725;47.912;7.356;2023-10-31T11:54:05;0.00;0.00;
61804;PMS7003;47725;47.912;7.356;2023-10-31T11:58:20;0.00;0.00;
61804;PMS7003;47725;47.912;7.356;2023-10-31T12:02:14;0.00;0.00;
61804;PMS7003;47725;47.912;7.356;2023-10-31T12:06:05;0.00;0.00;
61804;PMS7003;47725;47.912;7.356;2023-10-31T12:10:05;0.00;0.00;
61804;PMS7003;47725;47.912;7.356;2023-10-31T12:14:04;0.00;0.00;
61804;PMS7003;47725;47.912;7.356;2023-10-31T12:18:04;0.00;0.00;
61804;PMS7003;47725;47.912;7.356;2023-10-31T12:22:12;0.96;0.00;
61804;PMS7003;47725;47.912;7.356;2023-10-31T12:26:04;0.96;0.00;
61804;PMS7003;47725;47.912;7.356;2023-10-31T12:30:05;0.00;0.00;
61804;PMS7003;47725;47.912;7.356;2023-10-31T12:34:07;0.00;0.00;
61804;PMS7003;47725;47.912;7.356;2023-10-31T12:38:04;0.00;0.00;
61804;PMS7003;47725;47.912;7.356;2023-10-31T12:42:05;0.00;0.00;
61804;PMS7003;47725;47.912;7.356;2023-10-31T12:50:05;0.00;0.00;
61804;PMS7003;47725;47.912;7.356;2023-10-31T12:54:05;0.00;0.00;
61804;PMS7003;47725;47.912;7.356;2023-10-31T12:58:05;0.00;0.00;
61804;PMS7003;47725;47.912;7.356;2023-10-31T13:02:04;0.00;0.00;
61804;PMS7003;47725;47.912;7.356;2023-10-31T13:06:13;0.00;0.00;
61804;PMS7003;47725;47.912;7.356;2023-10-31T13:10:05;0.00;0.00;
61804;PMS7003;47725;47.912;7.356;2023-10-31T13:14:04;0.00;0.00;
61804;PMS7003;47725;47.912;7.356;2023-10-31T13:18:05;0.00;0.00;
61804;PMS7003;47725;47.912;7.356;2023-10-31T13:22:05;0.00;0.00;
61804;PMS7003;47725;47.912;7.356;2023-10-31T13:26:05;0.00;0.00;
61804;PMS7003;47725;47.912;7.356;2023-10-31T13:30:05;0.00;0.00;
61804;PMS7003;47725;47.912;7.356;2023-10-31T13:34:04;0.00;0.00;
61804;PMS7003;47725;47.912;7.356;2023-10-31T13:38:04;0.00;0.00;
61804;PMS7003;47725;47.912;7.356;2023-10-31T13:42:05;0.00;0.00;
61804;PMS7003;47725;47.912;7.356;2023-10-31T13:46:05;0.00;0.00;
61804;PMS7003;47725;47.912;7.356;2023-10-31T13:50:05;0.00;0.00;
61804;PMS7003;47725;47.912;7.356;2023-10-31T13:54:05;0.00;0.00;
61804;PMS7003;47725;47.912;7.356;2023-10-31T13:58:04;0.00;0.00;
61804;PMS7003;47725;47.912;7.356;2023-10-31T14:02:05;0.00;0.00;
61804;PMS7003;47725;47.912;7.356;2023-10-31T14:06:05;0.00;0.00;
61804;PMS7003;47725;47.912;7.356;2023-10-31T14:10:05;0.00;0.00;
61804;PMS7003;47725;47.912;7.356;2023-10-31T14:14:04;0.00;0.00;
61804;PMS7003;47725;47.912;7.356;2023-10-31T14:18:05;0.00;0.00;
61804;PMS7003;47725;47.912;7.356;2023-10-31T14:22:04;0.00;0.00;
61804;PMS7003;47725;47.912;7.356;2023-10-31T14:26:04;0.00;0.00;
61804;PMS7003;47725;47.912;7.356;2023-10-31T14:30:05;0.00;0.00;
61804;PMS7003;47725;47.912;7.356;2023-10-31T14:34:04;0.00;0.00;
61804;PMS7003;47725;47.912;7.356;2023-10-31T14:38:04;0.00;0.00;
61804;PMS7003;47725;47.912;7.356;2023-10-31T14:42:05;0.00;0.00;
61804;PMS7003;47725;47.912;7.356;2023-10-31T14:46:05;0.00;0.00;
61804;PMS7003;47725;47.912;7.356;2023-10-31T14:50:05;0.00;0.00;
61804;PMS7003;47725;47.912;7.356;2023-10-31T14:54:05;0.00;0.00;
61804;PMS7003;47725;47.912;7.356;2023-10-31T14:58:04;0.00;0.00;
61804;PMS7003;47725;47.912;7.356;2023-10-31T15:02:04;0.00;0.00;
61804;PMS7003;47725;47.912;7.356;2023-10-31T15:06:05;0.00;0.00;
61804;PMS7003;47725;47.912;7.356;2023-10-31T15:10:05;0.00;0.00;
61804;PMS7003;47725;47.912;7.356;2023-10-31T15:14:04;0.00;0.00;
61804;PMS7003;47725;47.912;7.356;2023-10-31T15:18:04;0.00;0.00;
61804;PMS7003;47725;47.912;7.356;2023-10-31T15:22:04;0.00;0.00;
61804;PMS7003;47725;47.912;7.356;2023-10-31T15:26:05;0.00;0.00;
61804;PMS7003;47725;47.912;7.356;2023-10-31T15:30:08;0.00;0.00;
61804;PMS7003;47725;47.912;7.356;2023-10-31T15:34:04;0.00;0.00;
61804;PMS7003;47725;47.912;7.356;2023-10-31T15:38:04;0.00;0.00;
61804;PMS7003;47725;47.912;7.356;2023-10-31T15:42:05;0.00;0.00;
61804;PMS7003;47725;47.912;7.356;2023-10-31T15:46:04;0.00;0.00;
61804;PMS7003;47725;47.912;7.356;2023-10-31T15:50:05;0.00;0.00;
61804;PMS7003;47725;47.912;7.356;2023-10-31T15:54:04;0.00;0.00;
61804;PMS7003;47725;47.912;7.356;2023-10-31T15:58:04;0.00;0.00;
61804;PMS7003;47725;47.912;7.356;2023-10-31T16:02:04;0.00;0.00;
61804;PMS7003;47725;47.912;7.356;2023-10-31T16:06:05;0.00;0.00;
61804;PMS7003;47725;47.912;7.356;2023-10-31T16:10:05;1.88;0.00;
61804;PMS7003;47725;47.912;7.356;2023-10-31T16:14:04;1.88;0.00;
61804;PMS7003;47725;47.912;7.356;2023-10-31T16:18:04;1.88;0.00;
61804;PMS7003;47725;47.912;7.356;2023-10-31T16:22:04;0.00;0.00;
61804;PMS7003;47725;47.912;7.356;2023-10-31T16:26:04;0.00;0.00;
61804;PMS7003;47725;47.912;7.356;2023-10-31T16:30:05;0.00;0.00;
61804;PMS7003;47725;47.912;7.356;2023-10-31T16:34:04;0.00;0.00;
61804;PMS7003;47725;47.912;7.356;2023-10-31T16:38:04;0.00;0.00;
61804;PMS7003;47725;47.912;7.356;2023-10-31T16:42:05;0.94;0.94;
61804;PMS7003;47725;47.912;7.356;2023-10-31T16:46:04;0.94;0.94;
61804;PMS7003;47725;47.912;7.356;2023-10-31T16:50:05;0.00;0.00;
61804;PMS7003;47725;47.912;7.356;2023-10-31T16:54:04;0.00;0.00;
61804;PMS7003;47725;47.912;7.356;2023-10-31T16:58:04;0.00;0.00;
61804;PMS7003;47725;47.912;7.356;2023-10-31T17:02:04;0.94;0.00;
61804;PMS7003;47725;47.912;7.356;2023-10-31T17:06:05;0.94;0.00;
61804;PMS7003;47725;47.912;7.356;2023-10-31T17:10:05;0.00;0.00;
61804;PMS7003;47725;47.912;7.356;2023-10-31T17:14:04;0.00;0.00;
61804;PMS7003;47725;47.912;7.356;2023-10-31T17:18:07;0.00;0.00;
61804;PMS7003;47725;47.912;7.356;2023-10-31T17:22:04;0.00;0.00;
61804;PMS7003;47725;47.912;7.356;2023-10-31T17:26:04;0.00;0.00;
61804;PMS7003;47725;47.912;7.356;2023-10-31T17:30:05;0.00;0.00;
61804;PMS7003;47725;47.912;7.356;2023-10-31T17:34:04;0.00;0.00;
61804;PMS7003;47725;47.912;7.356;2023-10-31T17:38:04;0.00;0.00;
61804;PMS7003;47725;47.912;7.356;2023-10-31T17:42:05;0.93;0.93;
61804;PMS7003;47725;47.912;7.356;2023-10-31T17:46:04;0.93;0.93;
61804;PMS7003;47725;47.912;7.356;2023-10-31T17:50:04;1.85;0.00;
61804;PMS7003;47725;47.912;7.356;2023-10-31T17:54:04;1.85;0.00;
61804;PMS7003;47725;47.912;7.356;2023-10-31T17:58:04;1.85;0.00;
61804;PMS7003;47725;47.912;7.356;2023-10-31T18:02:04;0.92;0.92;
61804;PMS7003;47725;47.912;7.356;2023-10-31T18:06:04;0.92;0.92;
61804;PMS7003;47725;47.912;7.356;2023-10-31T18:10:05;1.84;1.84;
61804;PMS7003;47725;47.912;7.356;2023-10-31T18:14:04;1.84;1.84;
61804;PMS7003;47725;47.912;7.356;2023-10-31T18:18:04;1.84;1.84;
61804;PMS7003;47725;47.912;7.356;2023-10-31T18:22:04;3.68;3.68;
61804;PMS7003;47725;47.912;7.356;2023-10-31T18:26:05;3.68;3.68;
61804;PMS7003;47725;47.912;7.356;2023-10-31T18:30:05;0.92;0.92;
61804;PMS7003;47725;47.912;7.356;2023-10-31T18:34:04;0.92;0.92;
61804;PMS7003;47725;47.912;7.356;2023-10-31T18:38:04;0.92;0.92;
61804;PMS7003;47725;47.912;7.356;2023-10-31T18:42:04;1.84;1.84;
61804;PMS7003;47725;47.912;7.356;2023-10-31T18:46:04;1.84;1.84;
61804;PMS7003;47725;47.912;7.356;2023-10-31T18:50:04;0.00;0.00;
61804;PMS7003;47725;47.912;7.356;2023-10-31T18:54:04;0.00;0.00;
61804;PMS7003;47725;47.912;7.356;2023-10-31T18:58:04;0.00;0.00;
61804;PMS7003;47725;47.912;7.356;2023-10-31T19:02:04;0.92;0.92;
61804;PMS7003;47725;47.912;7.356;2023-10-31T19:06:04;0.92;0.92;
61804;PMS7003;47725;47.912;7.356;2023-10-31T19:10:05;0.00;0.00;
61804;PMS7003;47725;47.912;7.356;2023-10-31T19:14:04;0.00;0.00;
61804;PMS7003;47725;47.912;7.356;2023-10-31T19:18:04;0.00;0.00;
61804;PMS7003;47725;47.912;7.356;2023-10-31T19:22:04;1.84;1.84;
61804;PMS7003;47725;47.912;7.356;2023-10-31T19:26:04;1.84;1.84;
61804;PMS7003;47725;47.912;7.356;2023-10-31T19:30:05;1.85;1.85;
61804;PMS7003;47725;47.912;7.356;2023-10-31T19:34:04;1.85;1.85;
61804;PMS7003;47725;47.912;7.356;2023-10-31T19:38:04;1.85;1.85;
61804;PMS7003;47725;47.912;7.356;2023-10-31T19:42:04;3.71;2.78;
61804;PMS7003;47725;47.912;7.356;2023-10-31T19:46:04;3.71;2.78;
61804;PMS7003;47725;47.912;7.356;2023-10-31T19:50:04;1.85;0.93;
61804;PMS7003;47725;47.912;7.356;2023-10-31T19:54:05;1.85;0.93;
61804;PMS7003;47725;47.912;7.356;2023-10-31T19:58:04;1.85;0.93;
61804;PMS7003;47725;47.912;7.356;2023-10-31T20:02:04;3.71;1.85;
61804;PMS7003;47725;47.912;7.356;2023-10-31T20:06:04;3.71;1.85;
61804;PMS7003;47725;47.912;7.356;2023-10-31T20:10:04;2.77;0.92;
61804;PMS7003;47725;47.912;7.356;2023-10-31T20:14:04;2.77;0.92;
61804;PMS7003;47725;47.912;7.356;2023-10-31T20:18:04;2.77;0.92;
61804;PMS7003;47725;47.912;7.356;2023-10-31T20:22:04;1.85;1.85;
61804;PMS7003;47725;47.912;7.356;2023-10-31T20:26:04;1.85;1.85;
61804;PMS7003;47725;47.912;7.356;2023-10-31T20:30:05;2.77;2.77;
61804;PMS7003;47725;47.912;7.356;2023-10-31T20:34:04;2.77;2.77;
61804;PMS7003;47725;47.912;7.356;2023-10-31T20:38:04;2.77;2.77;
61804;PMS7003;47725;47.912;7.356;2023-10-31T20:42:04;2.77;1.85;
61804;PMS7003;47725;47.912;7.356;2023-10-31T20:46:04;2.77;1.85;
61804;PMS7003;47725;47.912;7.356;2023-10-31T20:50:04;0.92;0.92;
61804;PMS7003;47725;47.912;7.356;2023-10-31T20:54:04;0.92;0.92;
61804;PMS7003;47725;47.912;7.356;2023-10-31T20:58:04;0.92;0.92;
61804;PMS7003;47725;47.912;7.356;2023-10-31T21:02:04;0.92;0.92;
61804;PMS7003;47725;47.912;7.356;2023-10-31T21:06:04;0.92;0.92;
61804;PMS7003;47725;47.912;7.356;2023-10-31T21:10:04;3.68;2.76;
61804;PMS7003;47725;47.912;7.356;2023-10-31T21:14:04;3.68;2.76;
61804;PMS7003;47725;47.912;7.356;2023-10-31T21:18:04;3.68;2.76;
61804;PMS7003;47725;47.912;7.356;2023-10-31T21:22:04;2.76;2.76;
61804;PMS7003;47725;47.912;7.356;2023-10-31T21:26:04;2.76;2.76;
61804;PMS7003;47725;47.912;7.356;2023-10-31T21:30:05;2.76;2.76;
61804;PMS7003;47725;47.912;7.356;2023-10-31T21:34:04;2.76;2.76;
61804;PMS7003;47725;47.912;7.356;2023-10-31T21:38:04;2.76;2.76;
61804;PMS7003;47725;47.912;7.356;2023-10-31T21:42:04;0.92;0.92;
61804;PMS7003;47725;47.912;7.356;2023-10-31T21:46:04;0.92;0.92;
61804;PMS7003;47725;47.912;7.356;2023-10-31T21:50:05;3.68;2.76;
61804;PMS7003;47725;47.912;7.356;2023-10-31T21:54:04;3.68;2.76;
61804;PMS7003;47725;47.912;7.356;2023-10-31T21:58:04;3.68;2.76;
61804;PMS7003;47725;47.912;7.356;2023-10-31T22:02:04;0.92;0.92;
61804;PMS7003;47725;47.912;7.356;2023-10-31T22:06:04;0.92;0.92;
61804;PMS7003;47725;47.912;7.356;2023-10-31T22:10:04;1.84;0.92;
61804;PMS7003;47725;47.912;7.356;2023-10-31T22:14:04;1.84;0.92;
61804;PMS7003;47725;47.912;7.356;2023-10-31T22:18:04;1.84;0.92;
61804;PMS7003;47725;47.912;7.356;2023-10-31T22:22:04;1.84;1.84;
61804;PMS7003;47725;47.912;7.356;2023-10-31T22:26:04;1.84;1.84;
61804;PMS7003;47725;47.912;7.356;2023-10-31T22:30:07;2.77;0.92;
61804;PMS7003;47725;47.912;7.356;2023-10-31T22:34:04;2.77;0.92;
61804;PMS7003;47725;47.912;7.356;2023-10-31T22:38:04;2.77;0.92;
61804;PMS7003;47725;47.912;7.356;2023-10-31T22:42:04;0.92;0.92;
61804;PMS7003;47725;47.912;7.356;2023-10-31T22:46:07;0.92;0.92;
61804;PMS7003;47725;47.912;7.356;2023-10-31T22:50:05;0.92;0.92;
61804;PMS7003;47725;47.912;7.356;2023-10-31T22:54:04;0.92;0.92;
61804;PMS7003;47725;47.912;7.356;2023-10-31T22:58:04;0.92;0.92;
61804;PMS7003;47725;47.912;7.356;2023-10-31T23:02:04;0.92;0.92;
61804;PMS7003;47725;47.912;7.356;2023-10-31T23:06:04;0.92;0.92;
61804;PMS7003;47725;47.912;7.356;2023-10-31T23:10:04;1.85;0.92;
61804;PMS7003;47725;47.912;7.356;2023-10-31T23:14:04;1.85;0.92;
61804;PMS7003;47725;47.912;7.356;2023-10-31T23:18:04;1.85;0.92;
61804;PMS7003;47725;47.912;7.356;2023-10-31T23:22:04;0.93;0.93;
61804;PMS7003;47725;47.912;7.356;2023-10-31T23:26:04;0.93;0.93;
61804;PMS7003;47725;47.912;7.356;2023-10-31T23:30:04;0.94;0.94;
61804;PMS7003;47725;47.912;7.356;2023-10-31T23:34:04;0.94;0.94;
61804;PMS7003;47725;47.912;7.356;2023-10-31T23:38:04;0.94;0.94;
61804;PMS7003;47725;47.912;7.356;2023-10-31T23:42:04;0.94;0.94;
61804;PMS7003;47725;47.912;7.356;2023-10-31T23:46:04;0.94;0.94;
61804;PMS7003;47725;47.912;7.356;2023-10-31T23:50:04;2.82;0.94;
61804;PMS7003;47725;47.912;7.356;2023-10-31T23:54:04;2.82;0.94;
61804;PMS7003;47725;47.912;7.356;2023-10-31T23:58:04;2.82;0.94;
